AWQ666 WAPP-WAMM
Flight info
| Callsign | AWQ666 |
|---|---|
| Flight time | 1h 4m |
| Altitude | 34000 |
| Route | WAPP/22 N0442F340 BELB1D BELBA W55 RUMBO RUMB1L WAMM/36 |
| Aircraft | A320/M-SDE2E3FGHIRWXY/LB1 |
Departure
| Time | 2026-05-01 09:31 |
|---|---|
| Airport | Pattimura International Airport (WAPP) |
Arrival
| Time | 2026-05-01 10:35 |
|---|---|
| Airport | Sam Ratulangi International Airport (WAMM) |
| Time | Latitude | Longitude | Altitude | Speed | Heading |
|---|---|---|---|---|---|
| 2026-05-01 09:07 | -3.70628 | 128.08857 | 36 ft | 0 kts | 0° |
| 2026-05-01 09:21 | -3.70650 | 128.08857 | 36 ft | 4 kts | 6° |
| 2026-05-01 09:21 | -3.70695 | 128.08837 | 36 ft | 4 kts | 81° |
| 2026-05-01 09:22 | -3.70696 | 128.08832 | 36 ft | 0 kts | 89° |
| 2026-05-01 09:25 | -3.70695 | 128.08888 | 36 ft | 6 kts | 89° |
| 2026-05-01 09:26 | -3.70695 | 128.08924 | 36 ft | 5 kts | 89° |
| 2026-05-01 09:26 | -3.70694 | 128.09017 | 36 ft | 12 kts | 90° |
| 2026-05-01 09:26 | -3.70717 | 128.09087 | 35 ft | 10 kts | 135° |
| 2026-05-01 09:27 | -3.70796 | 128.09181 | 35 ft | 8 kts | 95° |
| 2026-05-01 09:27 | -3.70767 | 128.09226 | 36 ft | 11 kts | 43° |
| 2026-05-01 09:27 | -3.70702 | 128.09291 | 36 ft | 16 kts | 45° |
| 2026-05-01 09:28 | -3.70610 | 128.09384 | 36 ft | 20 kts | 45° |
| 2026-05-01 09:28 | -3.70510 | 128.09486 | 36 ft | 20 kts | 44° |
| 2026-05-01 09:28 | -3.70403 | 128.09590 | 34 ft | 23 kts | 43° |
| 2026-05-01 09:28 | -3.70294 | 128.09690 | 34 ft | 18 kts | 26° |
| 2026-05-01 09:29 | -3.70273 | 128.09718 | 34 ft | 1 kts | 227° |
| 2026-05-01 09:30 | -3.70352 | 128.09639 | 34 ft | 50 kts | 225° |
| 2026-05-01 09:30 | -3.70773 | 128.09221 | 35 ft | 117 kts | 225° |
| 2026-05-01 09:30 | -3.72326 | 128.07666 | 555 ft | 177 kts | 224° |
| 2026-05-01 09:31 | -3.73198 | 128.06796 | 1239 ft | 177 kts | 222° |
| 2026-05-01 09:31 | -3.74097 | 128.05903 | 1690 ft | 191 kts | 222° |
| 2026-05-01 09:31 | -3.76335 | 128.03937 | 2240 ft | 237 kts | 217° |
| 2026-05-01 09:32 | -3.77627 | 128.02846 | 2864 ft | 249 kts | 219° |
| 2026-05-01 09:32 | -3.78943 | 127.99496 | 4013 ft | 283 kts | 279° |
| 2026-05-01 09:32 | -3.78153 | 127.97701 | 4810 ft | 286 kts | 311° |
| 2026-05-01 09:33 | -3.76550 | 127.96543 | 5615 ft | 287 kts | 337° |
| 2026-05-01 09:33 | -3.74722 | 127.95735 | 6462 ft | 288 kts | 338° |
| 2026-05-01 09:33 | -3.70992 | 127.94152 | 7963 ft | 294 kts | 338° |
| 2026-05-01 09:34 | -3.69121 | 127.93362 | 8726 ft | 296 kts | 338° |
| 2026-05-01 09:34 | -3.67216 | 127.92553 | 9495 ft | 299 kts | 338° |
| 2026-05-01 09:34 | -3.63287 | 127.90875 | 10416 ft | 325 kts | 338° |
| 2026-05-01 09:35 | -3.61138 | 127.89955 | 10552 ft | 348 kts | 338° |
| 2026-05-01 09:35 | -3.56471 | 127.87953 | 11201 ft | 375 kts | 338° |
| 2026-05-01 09:35 | -3.54848 | 127.87254 | 11588 ft | 377 kts | 338° |
| 2026-05-01 09:36 | -3.52460 | 127.86225 | 12181 ft | 381 kts | 338° |
| 2026-05-01 09:36 | -3.50019 | 127.85170 | 12785 ft | 384 kts | 338° |
| 2026-05-01 09:36 | -3.47554 | 127.84105 | 13367 ft | 387 kts | 338° |
| 2026-05-01 09:36 | -3.45068 | 127.83032 | 13905 ft | 391 kts | 338° |
| 2026-05-01 09:37 | -3.42554 | 127.81948 | 14407 ft | 394 kts | 338° |
| 2026-05-01 09:37 | -3.37477 | 127.79765 | 15404 ft | 400 kts | 338° |
| 2026-05-01 09:37 | -3.34905 | 127.78660 | 15896 ft | 403 kts | 338° |
| 2026-05-01 09:38 | -3.29713 | 127.76434 | 16877 ft | 409 kts | 338° |
| 2026-05-01 09:38 | -3.27125 | 127.75321 | 17351 ft | 412 kts | 338° |
| 2026-05-01 09:38 | -3.24478 | 127.74181 | 17836 ft | 415 kts | 338° |
| 2026-05-01 09:39 | -3.19129 | 127.71876 | 18704 ft | 422 kts | 338° |
| 2026-05-01 09:39 | -3.16425 | 127.70712 | 19105 ft | 424 kts | 338° |
| 2026-05-01 09:39 | -3.13703 | 127.69543 | 19505 ft | 427 kts | 338° |
| 2026-05-01 09:40 | -3.10967 | 127.68372 | 19896 ft | 429 kts | 338° |
| 2026-05-01 09:40 | -3.05439 | 127.66002 | 20656 ft | 434 kts | 338° |
| 2026-05-01 09:40 | -3.02655 | 127.64805 | 21014 ft | 437 kts | 338° |
| 2026-05-01 09:41 | -2.99848 | 127.63596 | 21372 ft | 439 kts | 338° |
| 2026-05-01 09:41 | -2.94196 | 127.61166 | 22063 ft | 444 kts | 338° |
| 2026-05-01 09:41 | -2.91345 | 127.59942 | 22389 ft | 447 kts | 338° |
| 2026-05-01 09:42 | -2.88482 | 127.58714 | 22717 ft | 449 kts | 338° |
| 2026-05-01 09:42 | -2.85606 | 127.57483 | 23028 ft | 451 kts | 338° |
| 2026-05-01 09:42 | -2.79841 | 127.55012 | 23596 ft | 455 kts | 338° |
| 2026-05-01 09:43 | -2.73992 | 127.52496 | 24096 ft | 459 kts | 338° |
| 2026-05-01 09:43 | -2.71055 | 127.51231 | 24350 ft | 461 kts | 338° |
| 2026-05-01 09:43 | -2.68103 | 127.49962 | 24588 ft | 462 kts | 338° |
| 2026-05-01 09:44 | -2.62169 | 127.47416 | 25058 ft | 465 kts | 338° |
| 2026-05-01 09:44 | -2.59186 | 127.46135 | 25294 ft | 467 kts | 338° |
| 2026-05-01 09:44 | -2.56196 | 127.44850 | 25527 ft | 468 kts | 338° |
| 2026-05-01 09:45 | -2.53201 | 127.43562 | 25761 ft | 469 kts | 338° |
| 2026-05-01 09:45 | -2.47760 | 127.41223 | 26174 ft | 472 kts | 338° |
| 2026-05-01 09:45 | -2.44735 | 127.39928 | 26395 ft | 473 kts | 338° |
| 2026-05-01 09:46 | -2.41706 | 127.38633 | 26607 ft | 475 kts | 338° |
| 2026-05-01 09:46 | -2.38658 | 127.37330 | 26819 ft | 476 kts | 338° |
| 2026-05-01 09:46 | -2.35613 | 127.36030 | 27018 ft | 477 kts | 338° |
| 2026-05-01 09:46 | -2.32551 | 127.34719 | 27219 ft | 479 kts | 338° |
| 2026-05-01 09:47 | -2.29488 | 127.33402 | 27408 ft | 480 kts | 338° |
| 2026-05-01 09:47 | -2.26456 | 127.32097 | 27601 ft | 481 kts | 338° |
| 2026-05-01 09:47 | -2.23380 | 127.30766 | 27785 ft | 482 kts | 336° |
| 2026-05-01 09:47 | -2.20440 | 127.29142 | 27964 ft | 484 kts | 328° |
| 2026-05-01 09:48 | -2.17582 | 127.27339 | 28129 ft | 485 kts | 328° |
| 2026-05-01 09:48 | -2.14731 | 127.25541 | 28382 ft | 485 kts | 328° |
| 2026-05-01 09:48 | -2.11881 | 127.23745 | 28638 ft | 484 kts | 328° |
| 2026-05-01 09:48 | -2.09032 | 127.21948 | 28897 ft | 483 kts | 328° |
| 2026-05-01 09:49 | -2.06193 | 127.20158 | 29151 ft | 482 kts | 328° |
| 2026-05-01 09:49 | -2.03355 | 127.18372 | 29419 ft | 482 kts | 328° |
| 2026-05-01 09:49 | -2.00522 | 127.16589 | 29692 ft | 481 kts | 328° |
| 2026-05-01 09:49 | -1.97686 | 127.14807 | 29936 ft | 480 kts | 329° |
| 2026-05-01 09:50 | -1.94855 | 127.13030 | 30166 ft | 480 kts | 329° |
| 2026-05-01 09:50 | -1.92028 | 127.11254 | 30389 ft | 479 kts | 329° |
| 2026-05-01 09:50 | -1.89209 | 127.09482 | 30620 ft | 479 kts | 329° |
| 2026-05-01 09:50 | -1.86396 | 127.07713 | 30847 ft | 478 kts | 329° |
| 2026-05-01 09:51 | -1.83575 | 127.05939 | 31079 ft | 477 kts | 329° |
| 2026-05-01 09:51 | -1.80766 | 127.04170 | 31314 ft | 477 kts | 329° |
| 2026-05-01 09:51 | -1.77965 | 127.02405 | 31549 ft | 476 kts | 329° |
| 2026-05-01 09:51 | -1.75190 | 127.00658 | 31783 ft | 476 kts | 329° |
| 2026-05-01 09:52 | -1.72388 | 126.98900 | 32019 ft | 475 kts | 329° |
| 2026-05-01 09:52 | -1.69592 | 126.97146 | 32256 ft | 475 kts | 329° |
| 2026-05-01 09:52 | -1.66795 | 126.95389 | 32489 ft | 474 kts | 329° |
| 2026-05-01 09:52 | -1.64002 | 126.93633 | 32726 ft | 474 kts | 329° |
| 2026-05-01 09:53 | -1.61208 | 126.91876 | 32964 ft | 474 kts | 329° |
| 2026-05-01 09:53 | -1.58418 | 126.90121 | 33201 ft | 474 kts | 329° |
| 2026-05-01 09:53 | -1.55636 | 126.88367 | 33444 ft | 473 kts | 329° |
| 2026-05-01 09:53 | -1.52845 | 126.86609 | 33686 ft | 473 kts | 329° |
| 2026-05-01 09:54 | -1.50060 | 126.84857 | 33840 ft | 473 kts | 329° |
| 2026-05-01 09:54 | -1.47294 | 126.83120 | 33876 ft | 476 kts | 329° |
| 2026-05-01 09:54 | -1.41672 | 126.79595 | 33870 ft | 477 kts | 329° |
| 2026-05-01 09:55 | -1.36055 | 126.76069 | 33870 ft | 477 kts | 329° |
| 2026-05-01 09:55 | -1.30441 | 126.72528 | 33871 ft | 477 kts | 329° |
| 2026-05-01 09:56 | -1.24821 | 126.68989 | 33871 ft | 477 kts | 329° |
| 2026-05-01 09:56 | -1.19197 | 126.65456 | 33870 ft | 477 kts | 329° |
| 2026-05-01 09:57 | -1.13572 | 126.61929 | 33872 ft | 477 kts | 329° |
| 2026-05-01 09:57 | -1.07941 | 126.58389 | 33871 ft | 477 kts | 329° |
| 2026-05-01 09:58 | -1.02321 | 126.54848 | 33875 ft | 477 kts | 329° |
| 2026-05-01 09:58 | -0.96727 | 126.51338 | 33874 ft | 477 kts | 329° |
| 2026-05-01 09:59 | -0.91100 | 126.47808 | 33875 ft | 477 kts | 329° |
| 2026-05-01 09:59 | -0.85489 | 126.44245 | 33877 ft | 477 kts | 328° |
| 2026-05-01 10:00 | -0.80003 | 126.40510 | 33877 ft | 478 kts | 326° |
| 2026-05-01 10:00 | -0.74854 | 126.36916 | 33872 ft | 478 kts | 326° |
| 2026-05-01 10:01 | -0.69475 | 126.33197 | 33873 ft | 477 kts | 327° |
| 2026-05-01 10:01 | -0.63992 | 126.29455 | 33874 ft | 477 kts | 327° |
| 2026-05-01 10:02 | -0.58503 | 126.25720 | 33874 ft | 477 kts | 327° |
| 2026-05-01 10:02 | -0.53020 | 126.21980 | 33872 ft | 477 kts | 327° |
| 2026-05-01 10:03 | -0.47534 | 126.18240 | 33869 ft | 477 kts | 327° |
| 2026-05-01 10:03 | -0.42054 | 126.14497 | 33871 ft | 477 kts | 326° |
| 2026-05-01 10:04 | -0.36569 | 126.10750 | 33877 ft | 477 kts | 327° |
| 2026-05-01 10:04 | -0.31088 | 126.07009 | 33879 ft | 477 kts | 326° |
| 2026-05-01 10:05 | -0.25602 | 126.03265 | 33877 ft | 477 kts | 326° |
| 2026-05-01 10:05 | -0.20122 | 125.99532 | 33879 ft | 477 kts | 326° |
| 2026-05-01 10:06 | -0.14634 | 125.95784 | 33875 ft | 477 kts | 326° |
| 2026-05-01 10:06 | -0.09156 | 125.92032 | 33874 ft | 477 kts | 326° |
| 2026-05-01 10:07 | -0.03715 | 125.88235 | 33874 ft | 477 kts | 324° |
| 2026-05-01 10:07 | 0.01483 | 125.84176 | 33876 ft | 477 kts | 321° |
| 2026-05-01 10:08 | 0.09192 | 125.77871 | 33875 ft | 477 kts | 321° |
| 2026-05-01 10:09 | 0.14380 | 125.73734 | 33870 ft | 477 kts | 322° |
| 2026-05-01 10:09 | 0.16984 | 125.71680 | 33628 ft | 477 kts | 322° |
| 2026-05-01 10:09 | 0.19594 | 125.69627 | 33176 ft | 477 kts | 322° |
| 2026-05-01 10:09 | 0.22223 | 125.67554 | 31966 ft | 485 kts | 322° |
| 2026-05-01 10:10 | 0.24875 | 125.65455 | 30948 ft | 489 kts | 322° |
| 2026-05-01 10:10 | 0.27556 | 125.63332 | 29793 ft | 494 kts | 322° |
| 2026-05-01 10:10 | 0.32985 | 125.59031 | 27270 ft | 499 kts | 322° |
| 2026-05-01 10:11 | 0.35715 | 125.56870 | 26003 ft | 502 kts | 322° |
| 2026-05-01 10:11 | 0.38413 | 125.54733 | 24982 ft | 500 kts | 322° |
| 2026-05-01 10:11 | 0.41130 | 125.52577 | 24154 ft | 494 kts | 322° |
| 2026-05-01 10:11 | 0.43761 | 125.50487 | 23353 ft | 474 kts | 322° |
| 2026-05-01 10:12 | 0.46318 | 125.48459 | 22128 ft | 463 kts | 322° |
| 2026-05-01 10:12 | 0.47978 | 125.47144 | 21356 ft | 457 kts | 322° |
| 2026-05-01 10:12 | 0.53749 | 125.42585 | 19638 ft | 447 kts | 322° |
| 2026-05-01 10:13 | 0.56175 | 125.40666 | 19044 ft | 443 kts | 322° |
| 2026-05-01 10:13 | 0.58580 | 125.38763 | 18468 ft | 438 kts | 322° |
| 2026-05-01 10:13 | 0.60962 | 125.36877 | 17868 ft | 434 kts | 322° |
| 2026-05-01 10:14 | 0.65659 | 125.33153 | 16651 ft | 426 kts | 322° |
| 2026-05-01 10:14 | 0.67944 | 125.31344 | 16089 ft | 423 kts | 322° |
| 2026-05-01 10:14 | 0.70266 | 125.29503 | 15534 ft | 419 kts | 322° |
| 2026-05-01 10:14 | 0.72497 | 125.27718 | 14991 ft | 415 kts | 322° |
| 2026-05-01 10:15 | 0.74747 | 125.25924 | 14459 ft | 411 kts | 322° |
| 2026-05-01 10:15 | 0.76982 | 125.24157 | 13924 ft | 408 kts | 322° |
| 2026-05-01 10:15 | 0.79201 | 125.22407 | 13355 ft | 404 kts | 322° |
| 2026-05-01 10:15 | 0.81402 | 125.20674 | 12759 ft | 400 kts | 322° |
| 2026-05-01 10:16 | 0.83568 | 125.18969 | 12437 ft | 390 kts | 322° |
| 2026-05-01 10:16 | 0.85655 | 125.17323 | 12310 ft | 374 kts | 322° |
| 2026-05-01 10:16 | 0.89576 | 125.14218 | 12063 ft | 346 kts | 322° |
| 2026-05-01 10:17 | 0.91403 | 125.12768 | 11942 ft | 333 kts | 322° |
| 2026-05-01 10:17 | 0.94918 | 125.09988 | 11699 ft | 312 kts | 322° |
| 2026-05-01 10:17 | 0.96604 | 125.08658 | 11439 ft | 307 kts | 322° |
| 2026-05-01 10:18 | 0.99922 | 125.06033 | 10792 ft | 302 kts | 322° |
| 2026-05-01 10:18 | 1.01565 | 125.04732 | 10459 ft | 301 kts | 322° |
| 2026-05-01 10:18 | 1.03133 | 125.03490 | 10143 ft | 299 kts | 322° |
| 2026-05-01 10:19 | 1.04759 | 125.02201 | 9823 ft | 297 kts | 322° |
| 2026-05-01 10:19 | 1.06351 | 125.00938 | 9704 ft | 286 kts | 322° |
| 2026-05-01 10:19 | 1.07886 | 124.99722 | 9515 ft | 279 kts | 322° |
| 2026-05-01 10:20 | 1.10863 | 124.97375 | 8808 ft | 262 kts | 324° |
| 2026-05-01 10:20 | 1.12458 | 124.96611 | 8467 ft | 251 kts | 348° |
| 2026-05-01 10:20 | 1.14169 | 124.96578 | 8125 ft | 245 kts | 13° |
| 2026-05-01 10:20 | 1.15615 | 124.97171 | 7810 ft | 242 kts | 36° |
| 2026-05-01 10:21 | 1.16783 | 124.98361 | 7476 ft | 241 kts | 59° |
| 2026-05-01 10:21 | 1.17274 | 125.01552 | 6991 ft | 236 kts | 107° |
| 2026-05-01 10:21 | 1.16551 | 125.03022 | 6986 ft | 239 kts | 129° |
| 2026-05-01 10:22 | 1.14074 | 125.05241 | 6985 ft | 240 kts | 141° |
| 2026-05-01 10:22 | 1.11451 | 125.07304 | 6986 ft | 240 kts | 142° |
| 2026-05-01 10:23 | 1.10564 | 125.07999 | 6981 ft | 240 kts | 142° |
| 2026-05-01 10:23 | 1.06995 | 125.09169 | 6806 ft | 238 kts | 191° |
| 2026-05-01 10:23 | 1.05933 | 125.08847 | 6726 ft | 236 kts | 207° |
| 2026-05-01 10:24 | 1.03921 | 125.06036 | 6501 ft | 277 kts | 266° |
| 2026-05-01 10:24 | 1.05556 | 125.02744 | 6278 ft | 278 kts | 328° |
| 2026-05-01 10:25 | 1.08996 | 125.00930 | 6031 ft | 280 kts | 332° |
| 2026-05-01 10:25 | 1.12409 | 124.99120 | 5786 ft | 273 kts | 332° |
| 2026-05-01 10:26 | 1.14045 | 124.98249 | 5660 ft | 260 kts | 332° |
| 2026-05-01 10:26 | 1.15605 | 124.97420 | 5539 ft | 248 kts | 332° |
| 2026-05-01 10:26 | 1.18536 | 124.95863 | 5303 ft | 237 kts | 332° |
| 2026-05-01 10:27 | 1.21434 | 124.94331 | 5191 ft | 235 kts | 332° |
| 2026-05-01 10:27 | 1.24170 | 124.92881 | 5199 ft | 214 kts | 332° |
| 2026-05-01 10:28 | 1.25482 | 124.92185 | 5202 ft | 212 kts | 332° |
| 2026-05-01 10:28 | 1.28187 | 124.91757 | 4974 ft | 182 kts | 2° |
| 2026-05-01 10:28 | 1.29395 | 124.91798 | 4833 ft | 167 kts | 2° |
| 2026-05-01 10:29 | 1.31653 | 124.91868 | 4245 ft | 160 kts | 2° |
| 2026-05-01 10:29 | 1.32784 | 124.91901 | 4233 ft | 170 kts | 2° |
| 2026-05-01 10:30 | 1.35187 | 124.91975 | 4213 ft | 174 kts | 2° |
| 2026-05-01 10:30 | 1.37541 | 124.92107 | 3661 ft | 164 kts | 1° |
| 2026-05-01 10:31 | 1.39782 | 124.92144 | 3160 ft | 159 kts | 356° |
| 2026-05-01 10:31 | 1.41981 | 124.92175 | 2644 ft | 159 kts | 360° |
| 2026-05-01 10:32 | 1.44218 | 124.92314 | 2292 ft | 162 kts | 359° |
| 2026-05-01 10:32 | 1.45341 | 124.92333 | 2092 ft | 161 kts | 357° |
| 2026-05-01 10:32 | 1.47575 | 124.92393 | 1648 ft | 160 kts | 1° |
| 2026-05-01 10:33 | 1.49789 | 124.92481 | 1208 ft | 159 kts | 359° |
| 2026-05-01 10:33 | 1.51988 | 124.92543 | 749 ft | 157 kts | 359° |
| 2026-05-01 10:34 | 1.53079 | 124.92575 | 507 ft | 157 kts | 358° |
| 2026-05-01 10:34 | 1.54159 | 124.92609 | 339 ft | 149 kts | 1° |
| 2026-05-01 10:34 | 1.55007 | 124.92635 | 337 ft | 73 kts | 2° |
| 2026-05-01 10:35 | 1.55516 | 124.92654 | 337 ft | 34 kts | 0° |
| 2026-05-01 10:35 | 1.55666 | 124.92604 | 335 ft | 20 kts | 284° |
| 2026-05-01 10:35 | 1.55651 | 124.92499 | 334 ft | 17 kts | 221° |
| 2026-05-01 10:35 | 1.55524 | 124.92486 | 336 ft | 19 kts | 181° |
| 2026-05-01 10:36 | 1.55210 | 124.92475 | 336 ft | 25 kts | 182° |
| 2026-05-01 10:36 | 1.55032 | 124.92469 | 336 ft | 26 kts | 182° |
| 2026-05-01 10:36 | 1.54844 | 124.92462 | 336 ft | 26 kts | 181° |
| 2026-05-01 10:37 | 1.54679 | 124.92459 | 336 ft | 23 kts | 181° |
| 2026-05-01 10:37 | 1.54400 | 124.92434 | 335 ft | 14 kts | 215° |
| 2026-05-01 10:37 | 1.54361 | 124.92408 | 333 ft | 4 kts | 250° |
| 2026-05-01 10:38 | 1.54358 | 124.92386 | 335 ft | 3 kts | 261° |
| 2026-05-01 10:38 | 1.54354 | 124.92358 | 336 ft | 4 kts | 262° |
| 2026-05-01 10:38 | 1.54351 | 124.92337 | 336 ft | 2 kts | 261° |
| 2026-05-01 10:38 | 1.54350 | 124.92335 | 336 ft | 0 kts | 261° |